Time;durP1;ratioP1;P1;durP2;ratioP2;P2;SDS_P1;SDS_P2;PMS_P1;PMS_P2;Temp;Humidity;BMP_temperature;BMP_pressure;BME280_temperature;BME280_humidity;BME280_pressure;Samples;Min_cycle;Max_cycle;Signal;HPM_P1;HPM_P2
2021/09/21 00:01:45;;;;;;;39.13;22.92;;;;;;;16.57;100.00;97730.09;4994180;28;20029;-76
2021/09/21 00:04:10;;;;;;;41.28;23.52;;;;;;;16.31;100.00;97698.09;4976319;28;20022;-75
2021/09/21 00:06:36;;;;;;;40.92;22.77;;;;;;;16.19;100.00;97716.16;4976735;28;20027;-75
2021/09/21 00:09:02;;;;;;;34.38;19.48;;;;;;;16.10;100.00;97706.13;4994149;28;20109;-76
2021/09/21 00:11:28;;;;;;;27.23;17.00;;;;;;;16.22;100.00;97726.72;4992692;28;20486;-76
2021/09/21 00:13:53;;;;;;;24.90;15.40;;;;;;;16.11;100.00;97721.34;4993990;28;20015;-76
2021/09/21 00:16:19;;;;;;;25.13;15.60;;;;;;;16.23;100.00;97750.88;4993719;28;20417;-76
2021/09/21 00:18:45;;;;;;;25.60;15.57;;;;;;;16.13;100.00;97732.84;4993888;28;20054;-75
2021/09/21 00:21:12;;;;;;;24.17;15.57;;;;;;;16.09;100.00;97731.38;4993664;28;20027;-75
2021/09/21 00:23:37;;;;;;;30.15;17.63;;;;;;;16.01;100.00;97752.75;4993958;28;20065;-76
2021/09/21 00:26:03;;;;;;;27.80;17.25;;;;;;;15.79;100.00;97747.34;4976245;28;20469;-76
2021/09/21 00:28:29;;;;;;;30.27;18.08;;;;;;;15.75;100.00;97762.06;4993804;28;20026;-76
2021/09/21 00:30:57;;;;;;;28.70;18.35;;;;;;;15.62;100.00;97749.56;4993570;28;20053;-75
2021/09/21 00:33:23;;;;;;;33.08;18.80;;;;;;;15.60;100.00;97743.41;4988604;28;20054;-76
2021/09/21 00:35:53;;;;;;;33.85;19.52;;;;;;;15.54;100.00;97749.28;4974369;28;20060;-76
2021/09/21 00:38:21;;;;;;;34.10;19.10;;;;;;;15.20;100.00;97715.13;4972823;28;20066;-75
2021/09/21 00:40:47;;;;;;;30.17;18.30;;;;;;;15.46;100.00;97757.09;4972919;28;20030;-75
2021/09/21 00:43:13;;;;;;;31.35;18.42;;;;;;;15.35;100.00;97759.75;4974360;28;20027;-75
2021/09/21 00:45:39;;;;;;;34.58;18.23;;;;;;;15.36;100.00;97748.00;4972646;28;20031;-76
2021/09/21 00:48:05;;;;;;;30.58;17.90;;;;;;;15.25;100.00;97729.13;4956657;28;20019;-75
2021/09/21 00:50:32;;;;;;;29.20;16.75;;;;;;;15.27;100.00;97758.63;4972499;28;20097;-75
2021/09/21 00:53:00;;;;;;;31.20;18.08;;;;;;;15.30;100.00;97753.88;4974120;28;20030;-77
2021/09/21 00:55:27;;;;;;;30.13;17.38;;;;;;;15.32;100.00;97757.28;4972466;28;20033;-76
2021/09/21 00:57:53;;;;;;;30.33;17.05;;;;;;;15.30;100.00;97737.69;4973619;28;20035;-76
2021/09/21 01:00:20;;;;;;;31.70;17.52;;;;;;;15.39;100.00;97758.53;4973760;28;20030;-76
2021/09/21 01:02:46;;;;;;;28.80;17.15;;;;;;;15.52;100.00;97753.94;4974018;28;20027;-76
2021/09/21 01:05:12;;;;;;;25.80;15.40;;;;;;;15.52;100.00;97759.34;4972627;28;20413;-75
2021/09/21 01:07:39;;;;;;;23.00;15.18;;;;;;;15.45;100.00;97744.59;4956608;28;20039;-76
2021/09/21 01:10:10;;;;;;;29.15;15.98;;;;;;;15.51;100.00;97741.44;4973714;28;20037;-76
2021/09/21 01:12:37;;;;;;;25.95;15.57;;;;;;;15.53;100.00;97750.28;4972313;28;20401;-77
2021/09/21 01:15:04;;;;;;;26.00;14.98;;;;;;;15.58;100.00;97761.56;4973549;28;20027;-76
2021/09/21 01:17:29;;;;;;;29.52;15.02;;;;;;;15.30;100.00;97716.13;4972932;28;20026;-77
2021/09/21 01:19:55;;;;;;;27.73;14.88;;;;;;;15.62;100.00;97749.56;4973747;28;20030;-76
2021/09/21 01:22:21;;;;;;;22.33;14.18;;;;;;;15.77;100.00;97749.31;4972355;28;20454;-75
2021/09/21 01:24:46;;;;;;;23.35;13.88;;;;;;;15.66;100.00;97744.75;4973246;28;20041;-75
2021/09/21 01:27:12;;;;;;;21.75;13.90;;;;;;;15.61;100.00;97747.84;4972078;28;20023;-75
2021/09/21 01:29:38;;;;;;;21.67;13.85;;;;;;;15.62;100.00;97754.97;4972083;28;20030;-76
2021/09/21 01:32:04;;;;;;;23.88;13.27;;;;;;;15.62;100.00;97751.41;4973507;28;20105;-75
2021/09/21 01:34:30;;;;;;;20.55;13.15;;;;;;;15.72;100.00;97757.75;4973429;28;20035;-75
2021/09/21 01:36:57;;;;;;;21.75;13.43;;;;;;;15.68;100.00;97754.47;4956112;28;20054;-75
2021/09/21 01:39:24;;;;;;;22.08;13.10;;;;;;;15.65;99.35;97738.53;4973246;28;20085;-76
2021/09/21 01:41:50;;;;;;;22.10;13.68;;;;;;;15.79;99.45;97755.44;4955742;28;20030;-76
2021/09/21 01:44:17;;;;;;;21.63;13.43;;;;;;;15.72;99.61;97736.19;4956163;28;20041;-76
2021/09/21 01:46:47;;;;;;;21.73;13.60;;;;;;;15.83;99.03;97751.53;4972941;28;20121;-76
2021/09/21 01:49:15;;;;;;;19.70;13.30;;;;;;;15.87;96.82;97748.47;4973316;28;20041;-77
2021/09/21 01:51:46;;;;;;;18.83;11.98;;;;;;;15.96;95.09;97754.97;4973306;28;20117;-76
2021/09/21 01:59:39;;;;;;;17.90;11.18;;;;;;;15.84;91.57;97737.06;4972219;28;20041;-76
2021/09/21 02:02:05;;;;;;;18.02;11.00;;;;;;;16.09;90.89;97783.53;4972904;28;20023;-75
2021/09/21 02:04:30;;;;;;;21.65;11.48;;;;;;;16.11;91.29;97789.69;4955589;28;20030;-76
2021/09/21 02:06:56;;;;;;;16.95;11.63;;;;;;;16.04;91.34;97785.75;4972900;28;20030;-75
2021/09/21 02:09:22;;;;;;;20.08;11.98;;;;;;;16.05;91.09;97778.50;4955529;28;20031;-77
2021/09/21 02:11:49;;;;;;;18.27;11.80;;;;;;;16.19;90.97;97791.75;4972845;28;20023;-76
2021/09/21 02:14:15;;;;;;;20.75;11.82;;;;;;;16.03;91.63;97792.09;4955940;28;20038;-76
2021/09/21 02:16:45;;;;;;;22.20;12.05;;;;;;;15.93;91.71;97791.16;4972717;28;20114;-76
2021/09/21 02:19:10;;;;;;;19.50;11.32;;;;;;;16.00;90.84;97791.50;4973151;28;20035;-77
2021/09/21 02:21:36;;;;;;;23.15;12.30;;;;;;;15.75;91.78;97757.50;4973935;28;20497;-76
2021/09/21 02:24:02;;;;;;;19.90;12.00;;;;;;;15.93;91.65;97798.38;4972707;28;20525;-77
2021/09/21 02:26:28;;;;;;;19.85;11.40;;;;;;;15.85;92.33;97803.50;4973005;28;20065;-76
2021/09/21 02:28:53;;;;;;;21.25;12.02;;;;;;;15.81;92.83;97815.53;4974637;28;20050;-77
2021/09/21 02:31:20;;;;;;;18.25;11.70;;;;;;;15.76;93.10;97815.00;4959027;28;20453;-77
2021/09/21 02:33:46;;;;;;;19.88;10.60;;;;;;;15.75;90.49;97810.63;4976208;28;20422;-76
2021/09/21 02:36:12;;;;;;;17.23;10.13;;;;;;;15.76;86.78;97812.31;4975337;28;20058;-76
2021/09/21 02:38:38;;;;;;;18.08;10.10;;;;;;;15.39;86.47;97758.53;4976528;28;20474;-76
2021/09/21 02:41:05;;;;;;;14.23;9.82;;;;;;;15.51;85.74;97792.66;4975252;28;20113;-77
2021/09/21 02:43:31;;;;;;;17.77;8.57;;;;;;;15.36;83.54;97793.81;4976555;28;20035;-76
2021/09/21 02:46:00;;;;;;;17.92;8.20;;;;;;;15.15;84.70;97774.78;4958835;28;20089;-76
2021/09/21 02:48:27;;;;;;;14.00;8.93;;;;;;;15.20;84.35;97796.84;4976287;28;20026;-76
2021/09/21 02:54:14;;;;;;;12.82;8.18;;;;;;;15.03;84.10;97815.28;4976531;28;20046;-76
2021/09/21 02:56:39;;;;;;;12.43;7.80;;;;;;;14.95;84.81;97823.91;4958312;28;20031;-76
2021/09/21 02:59:05;;;;;;;10.20;7.10;;;;;;;14.72;81.98;97805.94;4958385;28;20031;-77
2021/09/21 03:01:30;;;;;;;12.82;7.05;;;;;;;14.68;81.91;97827.81;4975696;28;20035;-76
2021/09/21 03:04:00;;;;;;;14.80;8.15;;;;;;;14.59;82.17;97827.53;4974782;28;20031;-76
2021/09/21 03:06:50;;;;;;;8.95;5.80;;;;;;;14.49;80.69;97813.00;4975647;28;20101;-77
2021/09/21 03:11:50;;;;;;;11.63;6.47;;;;;;;14.37;79.93;97826.50;4960078;28;21449;-76
2021/09/21 03:17:09;;;;;;;8.20;5.53;;;;;;;13.93;82.92;97810.84;4974658;28;20030;-77
2021/09/21 03:19:34;;;;;;;12.10;6.43;;;;;;;14.00;85.06;97857.84;4975633;28;20025;-76
2021/09/21 03:22:00;;;;;;;13.00;6.60;;;;;;;13.68;86.15;97806.34;4975770;28;20038;-77
2021/09/21 03:24:25;;;;;;;10.00;6.10;;;;;;;13.85;86.10;97851.72;4975957;28;20022;-76
2021/09/21 03:26:51;;;;;;;14.57;5.93;;;;;;;13.62;84.06;97805.91;4975351;28;20033;-81
2021/09/21 03:29:16;;;;;;;17.40;6.40;;;;;;;13.67;85.95;97825.25;4961393;28;20033;-77
2021/09/21 03:31:42;;;;;;;9.90;6.60;;;;;;;13.61;87.16;97826.56;4967203;28;20115;-81
2021/09/21 03:34:08;;;;;;;10.60;5.63;;;;;;;13.77;85.91;97861.28;4974005;28;20129;-77
2021/09/21 03:36:33;;;;;;;8.75;6.03;;;;;;;13.65;86.06;97849.56;4975232;28;20058;-76
2021/09/21 03:38:59;;;;;;;9.27;6.28;;;;;;;13.64;87.67;97880.09;4989692;28;20057;-76
2021/09/21 03:41:24;;;;;;;12.13;6.30;;;;;;;13.60;89.62;97889.34;4975490;28;20038;-76
2021/09/21 03:43:50;;;;;;;12.30;6.43;;;;;;;13.53;91.99;97886.19;4973976;28;20037;-76
2021/09/21 03:46:17;;;;;;;10.82;6.07;;;;;;;13.40;92.08;97865.66;4974066;28;20113;-76
2021/09/21 03:48:43;;;;;;;8.52;6.00;;;;;;;13.35;92.26;97875.88;4957911;28;20023;-76
2021/09/21 03:51:09;;;;;;;9.65;5.40;;;;;;;13.21;92.93;97863.34;4974220;28;20590;-77
2021/09/21 03:53:34;;;;;;;8.02;5.38;;;;;;;13.16;93.72;97875.38;4989961;28;20027;-77
2021/09/21 03:56:01;;;;;;;11.07;5.65;;;;;;;13.04;95.51;97879.72;4973676;28;20037;-77
2021/09/21 03:58:27;;;;;;;11.32;5.45;;;;;;;13.12;95.38;97896.22;4990127;28;20026;-76
2021/09/21 04:00:52;;;;;;;9.48;5.72;;;;;;;12.98;95.94;97899.75;4974704;28;20419;-77
2021/09/21 04:03:18;;;;;;;9.75;5.32;;;;;;;12.93;96.33;97892.97;4973812;28;20031;-77
2021/09/21 04:05:43;;;;;;;11.43;5.50;;;;;;;13.01;95.13;97907.63;4974768;28;20041;-77
2021/09/21 04:08:09;;;;;;;7.43;5.00;;;;;;;12.93;95.34;97888.47;4975212;28;20019;-77
2021/09/21 04:10:34;;;;;;;12.43;5.93;;;;;;;12.89;94.41;97891.44;4973931;28;20026;-82
2021/09/21 04:13:00;;;;;;;7.57;4.97;;;;;;;12.93;93.53;97898.34;4943628;28;20027;-77
2021/09/21 04:15:25;;;;;;;9.23;5.35;;;;;;;12.86;93.11;97878.22;4957336;28;20031;-76
2021/09/21 04:17:51;;;;;;;8.43;4.88;;;;;;;12.89;94.08;97902.19;4974219;28;20023;-76
2021/09/21 04:20:16;;;;;;;11.73;5.10;;;;;;;12.84;93.99;97898.94;4956885;28;20045;-76
2021/09/21 04:22:44;;;;;;;6.47;4.53;;;;;;;12.68;93.37;97887.47;4956797;28;20022;-75
2021/09/21 04:25:11;;;;;;;16.92;5.22;;;;;;;12.73;94.29;97899.66;4974205;28;20137;-75
2021/09/21 04:27:36;;;;;;;9.82;5.70;;;;;;;12.61;96.37;97895.09;4973196;28;20027;-77
2021/09/21 04:30:03;;;;;;;9.50;5.47;;;;;;;12.56;95.91;97880.22;4972804;28;20069;-72
2021/09/21 04:32:29;;;;;;;13.85;6.22;;;;;;;12.77;95.04;97914.59;4988965;28;20051;-75
2021/09/21 04:34:55;;;;;;;11.13;5.10;;;;;;;12.79;93.45;97912.69;4974062;28;20045;-77
2021/09/21 04:37:21;;;;;;;11.80;5.03;;;;;;;12.64;91.83;97905.63;4972710;28;20483;-75
2021/09/21 04:39:46;;;;;;;10.52;5.10;;;;;;;12.68;90.92;97925.06;4972767;28;20494;-75
2021/09/21 04:42:12;;;;;;;15.43;4.80;;;;;;;12.54;90.85;97909.84;4972675;28;20034;-75
2021/09/21 04:44:38;;;;;;;17.45;10.80;;;;;;;12.62;92.36;97928.13;4988860;28;20069;-75
2021/09/21 04:47:05;;;;;;;13.35;7.78;;;;;;;12.58;92.42;97916.72;4972540;28;20124;-75
2021/09/21 04:49:31;;;;;;;9.57;4.80;;;;;;;12.52;92.90;97918.97;4989010;28;20139;-77
2021/09/21 04:51:56;;;;;;;8.88;5.18;;;;;;;12.52;93.49;97921.66;4971872;28;20023;-76
2021/09/21 04:54:22;;;;;;;9.70;5.40;;;;;;;12.66;93.04;97935.03;4972443;28;20023;-76
2021/09/21 04:56:47;;;;;;;7.22;4.80;;;;;;;12.67;92.09;97924.22;4988740;28;20058;-77
2021/09/21 04:59:13;;;;;;;17.10;5.32;;;;;;;12.85;89.69;97944.50;4972285;28;20042;-75
2021/09/21 05:01:39;;;;;;;20.55;10.30;;;;;;;12.96;89.69;97947.34;4972335;28;20066;-75
2021/09/21 05:04:04;;;;;;;16.23;5.35;;;;;;;13.02;88.08;97935.34;4988420;28;20030;-75
2021/09/21 05:06:30;;;;;;;14.15;7.32;;;;;;;13.13;88.09;97946.28;4973576;28;20065;-76
2021/09/21 05:12:17;;;;;;;11.68;4.38;;;;;;;13.11;84.32;97931.22;4973911;28;20107;-77
2021/09/21 05:14:43;;;;;;;7.40;4.93;;;;;;;13.38;84.78;97970.53;4955997;28;20026;-77
2021/09/21 05:17:08;;;;;;;13.70;5.60;;;;;;;13.40;83.69;97949.81;4973301;28;20045;-76
2021/09/21 05:23:01;;;;;;;13.40;4.93;;;;;;;13.49;80.10;97891.91;4973513;28;20065;-75
2021/09/21 05:25:27;;;;;;;7.70;4.80;;;;;;;14.51;78.25;97979.81;4988004;28;20035;-76
2021/09/21 05:27:53;;;;;;;59.03;36.28;;;;;;;15.61;73.93;97963.56;4972051;28;20027;-76
2021/09/21 05:30:19;;;;;;;19.70;6.60;;;;;;;17.06;65.41;97983.63;4987883;28;20038;-76
2021/09/21 05:32:45;;;;;;;18.00;6.38;;;;;;;18.34;60.69;97995.38;4971804;28;20050;-76
2021/09/21 05:35:11;;;;;;;14.02;6.75;;;;;;;20.15;54.25;97983.47;4973094;28;20073;-76
2021/09/21 05:37:37;;;;;;;73.75;40.58;;;;;;;21.61;49.92;97973.72;4972154;28;20031;-76
2021/09/21 05:40:04;;;;;;;11.35;5.45;;;;;;;22.48;42.85;97956.69;4988078;28;20117;-76
2021/09/21 05:42:30;;;;;;;10.55;5.90;;;;;;;22.89;41.64;97958.69;4972124;28;20034;-75
2021/09/21 05:44:55;;;;;;;12.23;6.53;;;;;;;22.15;40.86;97920.97;4971771;28;20403;-76
2021/09/21 05:47:21;;;;;;;8.25;5.13;;;;;;;23.28;39.00;97947.28;4971625;28;20022;-76
2021/09/21 05:49:46;;;;;;;10.77;6.45;;;;;;;22.30;40.67;97962.19;4973086;28;20030;-77
2021/09/21 05:52:12;;;;;;;7.35;4.32;;;;;;;20.77;43.23;97974.81;4971700;28;20096;-75
2021/09/21 05:54:38;;;;;;;10.02;5.32;;;;;;;21.30;42.55;97982.34;4973346;28;20037;-75
2021/09/21 05:57:06;;;;;;;6.95;4.68;;;;;;;23.01;39.04;97962.84;4973359;28;20034;-75
2021/09/21 05:59:32;;;;;;;15.23;5.95;;;;;;;23.81;37.27;97975.13;4972817;28;20035;-76
2021/09/21 06:01:57;;;;;;;18.45;10.00;;;;;;;22.56;39.23;97984.00;4973928;28;20557;-76
2021/09/21 06:04:23;;;;;;;13.00;6.30;;;;;;;23.13;39.54;97988.00;4976735;28;20034;-75
2021/09/21 06:06:48;;;;;;;8.93;5.32;;;;;;;22.98;38.67;97995.91;4976921;28;20113;-76
2021/09/21 06:09:14;;;;;;;11.02;4.65;;;;;;;21.06;41.47;97997.34;4975490;28;20487;-76
2021/09/21 06:11:39;;;;;;;7.72;4.30;;;;;;;20.24;42.77;98009.78;4976860;28;20056;-76
2021/09/21 06:14:06;;;;;;;7.22;4.68;;;;;;;19.98;44.47;98023.09;4976861;28;20027;-76
2021/09/21 06:16:34;;;;;;;6.72;4.82;;;;;;;19.56;46.31;98034.28;4959029;28;20113;-76
2021/09/21 06:18:59;;;;;;;6.22;4.78;;;;;;;18.93;47.57;98036.28;4976784;28;20030;-75
2021/09/21 06:21:25;;;;;;;10.45;5.85;;;;;;;18.31;48.94;98034.44;4976465;28;20573;-76
2021/09/21 06:23:51;;;;;;;10.32;6.00;;;;;;;18.33;48.79;98037.03;4991590;28;20027;-77
2021/09/21 06:26:17;;;;;;;7.50;5.43;;;;;;;18.28;49.62;98039.25;4975123;28;20027;-78
2021/09/21 06:28:43;;;;;;;11.65;5.75;;;;;;;18.05;50.56;98053.88;4976688;28;20144;-76
2021/09/21 06:31:09;;;;;;;8.48;4.38;;;;;;;18.21;49.99;98057.03;4974916;28;20043;-76
2021/09/21 06:33:35;;;;;;;12.98;5.78;;;;;;;18.24;49.30;98045.94;4974785;28;20439;-75
2021/09/21 06:36:00;;;;;;;14.40;7.88;;;;;;;17.99;49.68;98040.88;4974909;28;20045;-76
2021/09/21 06:38:26;;;;;;;9.93;6.75;;;;;;;17.98;49.20;98058.09;4975986;28;20038;-76
2021/09/21 06:40:52;;;;;;;9.63;5.22;;;;;;;17.73;49.88;98051.16;4965395;28;20038;-76
2021/09/21 06:43:17;;;;;;;9.50;6.00;;;;;;;17.51;50.43;98046.59;4974814;28;20496;-74
2021/09/21 06:45:43;;;;;;;10.88;6.72;;;;;;;17.84;49.42;98049.25;4975032;28;20038;-75
2021/09/21 06:48:08;;;;;;;13.18;7.32;;;;;;;17.78;50.33;98046.22;4974966;28;20471;-74
2021/09/21 06:50:34;;;;;;;9.00;5.45;;;;;;;18.03;49.67;98056.72;4974544;28;20518;-74
2021/09/21 06:53:00;;;;;;;9.27;4.82;;;;;;;17.85;49.82;98056.41;4974916;28;20023;-74
2021/09/21 06:55:25;;;;;;;10.10;5.13;;;;;;;18.05;49.07;98059.31;4974473;28;20030;-74
2021/09/21 06:57:52;;;;;;;14.25;5.50;;;;;;;18.79;47.86;98061.91;4982135;28;20058;-75
2021/09/21 07:00:19;;;;;;;12.98;8.57;;;;;;;20.65;43.60;98051.25;4974394;28;20058;-77
2021/09/21 07:02:51;;;;;;;8.85;5.78;;;;;;;22.99;39.21;98041.31;4974246;28;20057;-77
2021/09/21 07:05:17;;;;;;;12.60;5.95;;;;;;;25.75;34.12;98016.06;4974605;28;20026;-75
2021/09/21 07:07:44;;;;;;;7.75;4.10;;;;;;;27.16;31.01;98016.44;4975484;28;20035;-75
2021/09/21 07:10:10;;;;;;;9.20;4.47;;;;;;;25.93;32.00;98005.69;4975741;28;20025;-75
2021/09/21 07:12:36;;;;;;;9.63;4.55;;;;;;;24.21;34.60;98024.44;4975651;28;20105;-77
2021/09/21 07:15:01;;;;;;;7.18;3.90;;;;;;;25.09;33.94;98025.50;4973446;28;20030;-77
2021/09/21 07:17:27;;;;;;;9.45;4.70;;;;;;;27.03;30.63;98029.09;4973940;28;20102;-77
2021/09/21 07:19:52;;;;;;;7.20;3.85;;;;;;;26.15;31.02;98004.88;4975194;28;20035;-77
2021/09/21 07:22:18;;;;;;;9.50;3.85;;;;;;;24.25;33.14;98008.56;4975588;28;20031;-76
2021/09/21 07:24:43;;;;;;;10.70;3.95;;;;;;;22.48;36.19;97978.50;4975183;28;20027;-76
2021/09/21 07:27:09;;;;;;;5.53;3.33;;;;;;;23.18;35.93;98046.56;4975283;28;20030;-76
2021/09/21 07:29:35;;;;;;;9.75;3.75;;;;;;;23.10;36.08;98043.75;4973979;28;20042;-76
2021/09/21 07:32:00;;;;;;;4.82;3.72;;;;;;;24.03;35.16;98051.03;4975148;28;20037;-77
2021/09/21 07:34:26;;;;;;;10.98;5.95;;;;;;;23.74;35.21;98048.75;4973609;28;20050;-76
2021/09/21 07:36:52;;;;;;;6.45;4.82;;;;;;;22.54;37.96;98046.03;4973826;28;20456;-77
2021/09/21 07:39:19;;;;;;;9.30;4.32;;;;;;;21.90;38.09;98049.81;4974247;28;20050;-77
2021/09/21 07:41:45;;;;;;;8.68;5.10;;;;;;;22.33;37.33;98048.25;4973647;28;20031;-77
2021/09/21 07:44:10;;;;;;;6.82;4.30;;;;;;;21.97;37.93;98058.25;4975064;28;20093;-77
2021/09/21 07:46:36;;;;;;;5.72;4.10;;;;;;;22.98;36.33;98058.69;4974940;28;20085;-77
2021/09/21 07:49:02;;;;;;;5.47;4.38;;;;;;;25.61;32.54;98045.09;4973943;28;20035;-77
2021/09/21 07:51:28;;;;;;;10.98;4.03;;;;;;;27.31;29.67;98055.78;4977970;28;20479;-78
2021/09/21 07:53:53;;;;;;;11.43;3.88;;;;;;;27.12;30.72;98039.81;4974582;28;20026;-77
2021/09/21 07:56:19;;;;;;;10.30;4.43;;;;;;;28.79;27.79;98029.78;4974864;28;20525;-77
2021/09/21 07:58:45;;;;;;;8.32;3.38;;;;;;;29.76;26.69;98031.56;4973493;28;20034;-75
2021/09/21 08:01:10;;;;;;;11.05;4.30;;;;;;;29.20;27.10;98027.13;4973620;28;20031;-75
2021/09/21 08:03:36;;;;;;;14.60;3.92;;;;;;;28.13;27.92;98030.94;4974423;28;20034;-74
2021/09/21 08:06:03;;;;;;;7.07;4.22;;;;;;;27.55;28.74;98040.06;4957047;28;20101;-77
2021/09/21 08:08:29;;;;;;;9.00;4.50;;;;;;;26.28;30.91;98035.34;4973420;28;20054;-76
2021/09/21 08:10:54;;;;;;;5.40;4.32;;;;;;;25.51;32.14;98047.16;4974310;28;20569;-76
2021/09/21 08:13:20;;;;;;;6.00;3.70;;;;;;;26.49;29.62;98048.38;4973359;28;20023;-75
2021/09/21 08:15:46;;;;;;;4.85;4.07;;;;;;;28.31;27.03;98037.72;4973233;28;20416;-75
2021/09/21 08:18:11;;;;;;;5.32;3.92;;;;;;;28.06;27.10;98043.75;4975852;28;20030;-76
2021/09/21 08:20:37;;;;;;;8.02;4.00;;;;;;;26.18;30.11;98051.16;4956894;28;20031;-76
2021/09/21 08:23:03;;;;;;;5.25;3.72;;;;;;;24.61;32.38;98053.72;4957058;28;20037;-75
2021/09/21 08:25:29;;;;;;;8.15;5.35;;;;;;;23.81;34.40;98059.84;4973163;28;20027;-75
2021/09/21 08:27:54;;;;;;;8.23;4.80;;;;;;;22.86;36.00;98065.41;4972709;28;20089;-76
2021/09/21 08:30:20;;;;;;;6.97;4.50;;;;;;;22.56;35.64;98065.81;4974248;28;20031;-75
2021/09/21 08:32:46;;;;;;;6.10;4.53;;;;;;;22.12;36.30;98073.91;4972718;28;20046;-75
2021/09/21 08:35:14;;;;;;;6.90;5.70;;;;;;;21.57;37.97;98069.47;4972933;28;20033;-76
2021/09/21 08:37:40;;;;;;;6.70;3.95;;;;;;;21.67;37.65;98066.72;4973233;28;20052;-76
2021/09/21 08:40:06;;;;;;;7.50;4.47;;;;;;;21.42;37.82;98073.69;4972659;28;20037;-76
2021/09/21 08:42:32;;;;;;;5.03;4.10;;;;;;;21.94;37.21;98064.84;4988822;28;20058;-77
2021/09/21 08:44:58;;;;;;;10.02;4.38;;;;;;;22.51;37.42;98060.84;4956464;28;20027;-76
2021/09/21 08:47:25;;;;;;;4.07;3.67;;;;;;;25.19;32.10;98052.72;4972768;28;20422;-77
2021/09/21 08:49:50;;;;;;;5.65;3.97;;;;;;;27.07;29.31;98034.00;4972506;28;20403;-77
2021/09/21 08:52:16;;;;;;;4.55;3.47;;;;;;;29.14;26.32;98012.25;4971663;28;20084;-77
2021/09/21 08:54:41;;;;;;;5.60;3.50;;;;;;;31.15;24.29;97995.00;4956280;28;20117;-77
2021/09/21 08:57:07;;;;;;;9.52;3.92;;;;;;;29.63;26.23;98008.56;4956004;28;20038;-75
2021/09/21 08:59:35;;;;;;;6.60;4.65;;;;;;;30.14;25.34;98004.38;4956110;28;20332;-75
2021/09/21 09:05:22;;;;;;;6.85;4.00;;;;;;;24.26;31.81;98010.28;4954342;29;20086;-75
2021/09/21 09:07:54;;;;;;;5.60;3.88;;;;;;;25.43;30.93;98022.50;4954146;29;20023;-77
2021/09/21 09:10:24;;;;;;;4.20;3.80;;;;;;;27.34;27.97;98000.44;4952993;29;20031;-76
2021/09/21 09:12:50;;;;;;;4.55;4.00;;;;;;;28.94;26.77;98005.75;4953006;29;20027;-76
2021/09/21 09:15:22;;;;;;;6.70;4.40;;;;;;;28.71;27.68;98005.09;4952775;29;20035;-76
2021/09/21 09:18:01;;;;;;;4.47;3.20;;;;;;;27.62;27.03;97986.03;4952817;29;20019;-76
2021/09/21 09:20:42;;;;;;;3.80;3.33;;;;;;;27.71;27.13;98004.13;4953319;29;20035;-76
2021/09/21 09:23:09;;;;;;;4.45;3.58;;;;;;;29.19;25.12;97995.97;4952721;29;20573;-76
2021/09/21 09:25:45;;;;;;;6.53;4.60;;;;;;;29.98;24.71;98005.59;4968777;28;20066;-76
2021/09/21 09:28:26;;;;;;;5.30;3.85;;;;;;;30.82;23.93;98002.44;4972047;28;20019;-76
2021/09/21 09:30:53;;;;;;;5.53;3.78;;;;;;;29.95;24.61;97994.13;4971808;28;20030;-76
2021/09/21 09:33:20;;;;;;;6.90;3.03;;;;;;;31.36;23.29;97999.44;4977489;28;20065;-76
2021/09/21 09:35:47;;;;;;;5.10;3.72;;;;;;;30.50;24.17;98006.84;4971557;28;20030;-77
2021/09/21 09:38:18;;;;;;;7.50;5.63;;;;;;;27.59;26.95;98013.91;4972521;28;20072;-76
2021/09/21 09:40:51;;;;;;;4.40;3.73;;;;;;;26.19;29.03;98030.94;4971476;28;20530;-75
2021/09/21 09:43:21;;;;;;;4.85;3.25;;;;;;;25.37;30.04;98036.06;4971041;28;20077;-74
2021/09/21 09:45:48;;;;;;;4.10;3.45;;;;;;;25.50;30.00;98028.19;4981212;28;20069;-75
2021/09/21 09:48:17;;;;;;;4.82;3.22;;;;;;;28.10;27.33;98029.41;4972964;28;20077;-75
2021/09/21 09:50:44;;;;;;;7.22;3.33;;;;;;;29.39;24.98;98021.78;4958516;28;20031;-75
2021/09/21 09:53:10;;;;;;;5.40;3.42;;;;;;;28.44;26.50;98014.97;4972790;28;20029;-76
2021/09/21 09:55:36;;;;;;;14.63;3.67;;;;;;;27.36;27.96;98024.97;4972871;28;20027;-76
2021/09/21 09:58:03;;;;;;;4.72;3.33;;;;;;;27.33;26.71;98012.47;4971517;28;20034;-76
2021/09/21 10:00:29;;;;;;;8.27;3.67;;;;;;;26.91;28.23;98029.56;4979912;28;20093;-76
2021/09/21 10:02:55;;;;;;;7.60;3.33;;;;;;;26.37;29.45;98006.78;4964409;28;20534;-76
2021/09/21 10:05:21;;;;;;;5.85;3.00;;;;;;;25.60;29.66;98026.06;4979666;28;20406;-76
2021/09/21 10:07:47;;;;;;;11.18;8.68;;;;;;;23.67;32.38;98041.34;4962557;28;20046;-76
2021/09/21 10:10:13;;;;;;;7.00;3.97;;;;;;;24.65;31.71;98040.56;4972994;28;20066;-75
2021/09/21 10:12:39;;;;;;;6.28;3.60;;;;;;;25.35;30.65;98028.00;4983583;28;20034;-75
2021/09/21 10:15:06;;;;;;;7.63;5.35;;;;;;;24.84;31.76;98043.00;4979492;28;20031;-75
2021/09/21 10:17:35;;;;;;;9.15;3.78;;;;;;;24.04;32.70;98040.97;4967898;28;20410;-76
2021/09/21 10:20:02;;;;;;;7.25;3.40;;;;;;;23.36;33.99;98042.88;4972187;28;20038;-76
2021/09/21 10:22:29;;;;;;;6.30;3.25;;;;;;;24.20;32.96;98055.56;4968741;28;20031;-76
2021/09/21 10:24:55;;;;;;;6.53;3.47;;;;;;;24.59;32.44;98049.44;4985488;28;20039;-75
2021/09/21 10:27:23;;;;;;;5.93;2.92;;;;;;;23.96;32.33;98038.22;4964853;28;20037;-75
2021/09/21 10:30:04;;;;;;;3.35;2.80;;;;;;;24.44;32.08;98029.28;4971437;28;20560;-75
2021/09/21 10:32:30;;;;;;;11.07;3.57;;;;;;;26.15;30.46;98040.56;4987242;28;20425;-76
2021/09/21 10:34:58;;;;;;;4.75;3.28;;;;;;;27.84;27.72;98034.56;4981095;28;20034;-76
2021/09/21 10:37:30;;;;;;;8.38;3.15;;;;;;;27.40;27.61;98031.81;4956739;28;20038;-75
2021/09/21 10:40:04;;;;;;;4.85;3.05;;;;;;;27.17;27.58;98020.88;4957224;28;20041;-75
2021/09/21 10:42:30;;;;;;;8.82;3.67;;;;;;;26.53;29.72;98027.78;4973573;28;20046;-75
2021/09/21 10:45:02;;;;;;;5.72;2.72;;;;;;;27.18;28.85;98025.34;4957263;28;20031;-76
2021/09/21 10:47:30;;;;;;;4.22;2.80;;;;;;;29.10;26.31;98027.50;4971227;28;20027;-76
2021/09/21 10:50:12;;;;;;;4.30;2.72;;;;;;;27.36;27.29;98019.47;4973665;28;20041;-76
2021/09/21 10:52:38;;;;;;;6.40;2.58;;;;;;;27.88;27.23;98019.38;4966468;28;20078;-76
2021/09/21 10:55:07;;;;;;;5.97;2.70;;;;;;;27.07;27.96;98024.94;4974538;28;20446;-75
2021/09/21 10:57:34;;;;;;;7.20;3.70;;;;;;;26.62;29.15;98031.31;4980340;28;20031;-75
2021/09/21 11:00:08;;;;;;;15.25;4.47;;;;;;;25.38;31.19;98032.28;4980061;28;20058;-76
2021/09/21 11:02:37;;;;;;;10.55;2.72;;;;;;;25.39;30.62;98023.88;4966367;28;20031;-76
2021/09/21 11:05:15;;;;;;;6.60;3.03;;;;;;;24.67;31.22;98035.78;4966903;28;20091;-76
2021/09/21 11:08:12;;;;;;;5.50;3.25;;;;;;;24.71;31.70;98020.72;4985150;28;20039;-75
2021/09/21 11:10:49;;;;;;;6.30;3.00;;;;;;;24.89;31.04;98032.38;4966189;28;20123;-75
2021/09/21 11:13:17;;;;;;;3.30;2.58;;;;;;;25.70;29.50;98021.22;4966869;28;20031;-76
2021/09/21 11:15:45;;;;;;;3.78;2.40;;;;;;;25.47;29.51;98023.00;4980345;28;20027;-75
2021/09/21 11:18:12;;;;;;;2.65;2.13;;;;;;;26.20;29.01;97988.75;4983060;28;20123;-75
2021/09/21 11:21:05;;;;;;;2.92;2.60;;;;;;;26.78;28.40;98006.47;4975343;28;20089;-75
2021/09/21 11:23:35;;;;;;;5.05;2.38;;;;;;;27.26;27.66;97997.75;4956755;28;20122;-75
2021/09/21 11:26:04;;;;;;;4.88;2.55;;;;;;;29.54;25.51;97996.84;4987246;28;20027;-76
2021/09/21 11:28:31;;;;;;;23.23;2.47;;;;;;;30.89;23.84;97986.69;4974787;28;20018;-76
2021/09/21 11:30:57;;;;;;;2.70;2.15;;;;;;;31.74;22.50;97944.25;4975175;28;20030;-75
2021/09/21 11:33:28;;;;;;;3.47;2.78;;;;;;;32.38;22.53;97967.16;4965311;28;20102;-75
2021/09/21 11:36:03;;;;;;;8.85;3.45;;;;;;;30.45;23.90;97973.50;4975097;28;20038;-75
2021/09/21 11:38:30;;;;;;;5.57;2.95;;;;;;;29.77;25.35;97969.81;4973762;28;20552;-75
2021/09/21 11:40:56;;;;;;;5.10;2.85;;;;;;;28.28;27.00;97979.44;4970968;28;20039;-75
2021/09/21 11:43:23;;;;;;;2.25;2.05;;;;;;;26.80;27.77;97968.72;4975573;28;20482;-74
2021/09/21 11:45:49;;;;;;;2.50;2.30;;;;;;;26.50;28.27;97947.69;4974837;28;20110;-75
2021/09/21 11:48:16;;;;;;;3.33;2.22;;;;;;;26.42;28.64;97987.88;4973651;28;20031;-74
2021/09/21 11:50:44;;;;;;;5.25;2.60;;;;;;;27.52;27.72;97980.84;4978166;28;20035;-75